sensor_id;sensor_type;location;lat;lon;timestamp;temperature;humidity
70682;SHT31;58261;48.228;11.686;2022-08-27T00:02:56;20.8;77
70682;SHT31;58261;48.228;11.686;2022-08-27T00:06:16;20.8;77
70682;SHT31;58261;48.228;11.686;2022-08-27T00:09:35;20.1;81
70682;SHT31;58261;48.228;11.686;2022-08-27T00:12:55;20.1;81
70682;SHT31;58261;48.228;11.686;2022-08-27T00:16:16;20.1;81
70682;SHT31;58261;48.228;11.686;2022-08-27T00:19:37;20.1;81
70682;SHT31;58261;48.228;11.686;2022-08-27T00:22:55;20.2;80
70682;SHT31;58261;48.228;11.686;2022-08-27T00:26:16;20.2;80
70682;SHT31;58261;48.228;11.686;2022-08-27T00:29:35;20.2;80
70682;SHT31;58261;48.228;11.686;2022-08-27T00:32:55;20.5;79
70682;SHT31;58261;48.228;11.686;2022-08-27T00:36:15;20.5;79
70682;SHT31;58261;48.228;11.686;2022-08-27T00:39:35;20.5;79
70682;SHT31;58261;48.228;11.686;2022-08-27T00:42:56;20.5;79
70682;SHT31;58261;48.228;11.686;2022-08-27T00:46:18;20.5;79
70682;SHT31;58261;48.228;11.686;2022-08-27T00:49:37;20.5;79
70682;SHT31;58261;48.228;11.686;2022-08-27T00:52:56;20.5;79
70682;SHT31;58261;48.228;11.686;2022-08-27T00:56:16;20.7;79
70682;SHT31;58261;48.228;11.686;2022-08-27T00:59:35;20.7;79
70682;SHT31;58261;48.228;11.686;2022-08-27T01:02:55;20.7;79
70682;SHT31;58261;48.228;11.686;2022-08-27T01:06:16;20.5;79
70682;SHT31;58261;48.228;11.686;2022-08-27T01:09:36;20.5;79
70682;SHT31;58261;48.228;11.686;2022-08-27T01:12:56;20.5;79
70682;SHT31;58261;48.228;11.686;2022-08-27T01:16:16;20.3;79
70682;SHT31;58261;48.228;11.686;2022-08-27T01:19:37;20.3;79
70682;SHT31;58261;48.228;11.686;2022-08-27T01:22:58;20.3;79
70682;SHT31;58261;48.228;11.686;2022-08-27T01:26:16;20.2;79
70682;SHT31;58261;48.228;11.686;2022-08-27T01:29:36;20.2;79
70682;SHT31;58261;48.228;11.686;2022-08-27T01:32:56;20.2;79
70682;SHT31;58261;48.228;11.686;2022-08-27T01:36:16;20.2;79
70682;SHT31;58261;48.228;11.686;2022-08-27T01:39:36;20.2;79
70682;SHT31;58261;48.228;11.686;2022-08-27T01:42:56;20.2;79
70682;SHT31;58261;48.228;11.686;2022-08-27T01:46:19;20.2;79
70682;SHT31;58261;48.228;11.686;2022-08-27T01:49:36;20.3;79
70682;SHT31;58261;48.228;11.686;2022-08-27T01:52:56;20.3;79
70682;SHT31;58261;48.228;11.686;2022-08-27T01:56:16;20.3;79
70682;SHT31;58261;48.228;11.686;2022-08-27T01:59:36;20.3;78
70682;SHT31;58261;48.228;11.686;2022-08-27T02:02:56;20.3;78
70682;SHT31;58261;48.228;11.686;2022-08-27T02:06:16;20.3;78
70682;SHT31;58261;48.228;11.686;2022-08-27T02:09:36;20.4;78
70682;SHT31;58261;48.228;11.686;2022-08-27T02:12:56;20.4;78
70682;SHT31;58261;48.228;11.686;2022-08-27T02:16:16;20.4;78
70682;SHT31;58261;48.228;11.686;2022-08-27T02:19:36;20.4;78
70682;SHT31;58261;48.228;11.686;2022-08-27T02:22:56;20.2;78
70682;SHT31;58261;48.228;11.686;2022-08-27T02:26:16;20.2;78
70682;SHT31;58261;48.228;11.686;2022-08-27T02:29:36;20.2;78
70682;SHT31;58261;48.228;11.686;2022-08-27T02:32:56;20.2;78
70682;SHT31;58261;48.228;11.686;2022-08-27T02:36:16;20.2;78
70682;SHT31;58261;48.228;11.686;2022-08-27T02:39:36;20.2;78
70682;SHT31;58261;48.228;11.686;2022-08-27T02:42:56;20.2;78
70682;SHT31;58261;48.228;11.686;2022-08-27T02:46:16;20.2;78
70682;SHT31;58261;48.228;11.686;2022-08-27T02:49:36;20.2;78
70682;SHT31;58261;48.228;11.686;2022-08-27T02:52:56;20.1;78
70682;SHT31;58261;48.228;11.686;2022-08-27T02:56:16;20.1;78
70682;SHT31;58261;48.228;11.686;2022-08-27T02:59:36;20.1;78
70682;SHT31;58261;48.228;11.686;2022-08-27T03:02:56;20.1;78
70682;SHT31;58261;48.228;11.686;2022-08-27T03:06:16;19.8;80
70682;SHT31;58261;48.228;11.686;2022-08-27T03:09:36;19.8;80
70682;SHT31;58261;48.228;11.686;2022-08-27T03:12:56;19.8;80
70682;SHT31;58261;48.228;11.686;2022-08-27T03:16:16;19.7;80
70682;SHT31;58261;48.228;11.686;2022-08-27T03:19:36;19.7;80
70682;SHT31;58261;48.228;11.686;2022-08-27T03:22:56;19.7;80
70682;SHT31;58261;48.228;11.686;2022-08-27T03:26:16;19.9;80
70682;SHT31;58261;48.228;11.686;2022-08-27T03:29:36;19.9;80
70682;SHT31;58261;48.228;11.686;2022-08-27T03:32:56;19.9;80
70682;SHT31;58261;48.228;11.686;2022-08-27T03:36:16;19.9;80
70682;SHT31;58261;48.228;11.686;2022-08-27T03:39:36;19.8;80
70682;SHT31;58261;48.228;11.686;2022-08-27T03:42:56;19.8;80
70682;SHT31;58261;48.228;11.686;2022-08-27T03:46:16;19.8;80
70682;SHT31;58261;48.228;11.686;2022-08-27T03:49:36;19.9;79
70682;SHT31;58261;48.228;11.686;2022-08-27T03:52:56;19.9;79
70682;SHT31;58261;48.228;11.686;2022-08-27T03:56:16;19.9;79
70682;SHT31;58261;48.228;11.686;2022-08-27T03:59:36;19.9;79
70682;SHT31;58261;48.228;11.686;2022-08-27T04:02:56;19.9;79
70682;SHT31;58261;48.228;11.686;2022-08-27T04:06:16;19.9;79
70682;SHT31;58261;48.228;11.686;2022-08-27T04:09:36;19.9;79
70682;SHT31;58261;48.228;11.686;2022-08-27T04:12:56;19.9;79
70682;SHT31;58261;48.228;11.686;2022-08-27T04:16:16;19.9;79
70682;SHT31;58261;48.228;11.686;2022-08-27T04:19:36;19.9;79
70682;SHT31;58261;48.228;11.686;2022-08-27T04:22:56;19.9;79
70682;SHT31;58261;48.228;11.686;2022-08-27T04:26:16;19.9;79
70682;SHT31;58261;48.228;11.686;2022-08-27T04:29:36;19.9;79
70682;SHT31;58261;48.228;11.686;2022-08-27T04:32:56;19.8;79
70682;SHT31;58261;48.228;11.686;2022-08-27T04:36:16;19.8;79
70682;SHT31;58261;48.228;11.686;2022-08-27T04:39:36;19.8;79
70682;SHT31;58261;48.228;11.686;2022-08-27T04:42:56;19.6;79
70682;SHT31;58261;48.228;11.686;2022-08-27T04:46:20;19.6;79
70682;SHT31;58261;48.228;11.686;2022-08-27T04:49:36;19.6;79
70682;SHT31;58261;48.228;11.686;2022-08-27T04:52:56;19.6;80
70682;SHT31;58261;48.228;11.686;2022-08-27T04:56:16;19.6;80
70682;SHT31;58261;48.228;11.686;2022-08-27T04:59:36;19.6;80
70682;SHT31;58261;48.228;11.686;2022-08-27T05:02:56;19.6;80
70682;SHT31;58261;48.228;11.686;2022-08-27T05:06:16;19.6;80
70682;SHT31;58261;48.228;11.686;2022-08-27T05:09:36;19.6;80
70682;SHT31;58261;48.228;11.686;2022-08-27T05:12:56;19.6;80
70682;SHT31;58261;48.228;11.686;2022-08-27T05:16:17;19.5;81
70682;SHT31;58261;48.228;11.686;2022-08-27T05:19:36;19.5;81
70682;SHT31;58261;48.228;11.686;2022-08-27T05:22:56;19.5;81
70682;SHT31;58261;48.228;11.686;2022-08-27T05:26:16;19.5;81
70682;SHT31;58261;48.228;11.686;2022-08-27T05:29:36;19.5;81
70682;SHT31;58261;48.228;11.686;2022-08-27T05:32:56;19.5;81
70682;SHT31;58261;48.228;11.686;2022-08-27T05:36:16;19.5;81
70682;SHT31;58261;48.228;11.686;2022-08-27T05:39:36;19.5;81
70682;SHT31;58261;48.228;11.686;2022-08-27T05:42:56;19.5;81
70682;SHT31;58261;48.228;11.686;2022-08-27T05:46:17;19.5;81
70682;SHT31;58261;48.228;11.686;2022-08-27T05:49:36;19.5;81
70682;SHT31;58261;48.228;11.686;2022-08-27T05:52:56;19.5;81
70682;SHT31;58261;48.228;11.686;2022-08-27T05:56:16;19.5;81
70682;SHT31;58261;48.228;11.686;2022-08-27T05:59:36;19.6;82
70682;SHT31;58261;48.228;11.686;2022-08-27T06:02:56;19.6;82
70682;SHT31;58261;48.228;11.686;2022-08-27T06:06:16;19.6;82
70682;SHT31;58261;48.228;11.686;2022-08-27T06:09:36;19.7;82
70682;SHT31;58261;48.228;11.686;2022-08-27T06:12:56;19.7;82
70682;SHT31;58261;48.228;11.686;2022-08-27T06:16:16;19.7;82
70682;SHT31;58261;48.228;11.686;2022-08-27T06:19:36;19.7;82
70682;SHT31;58261;48.228;11.686;2022-08-27T06:22:56;19.7;82
70682;SHT31;58261;48.228;11.686;2022-08-27T06:26:17;19.7;82
70682;SHT31;58261;48.228;11.686;2022-08-27T06:29:36;19.7;82
70682;SHT31;58261;48.228;11.686;2022-08-27T06:32:56;19.7;82
70682;SHT31;58261;48.228;11.686;2022-08-27T06:36:17;19.7;82
70682;SHT31;58261;48.228;11.686;2022-08-27T06:39:36;19.7;82
70682;SHT31;58261;48.228;11.686;2022-08-27T06:42:56;19.7;82
70682;SHT31;58261;48.228;11.686;2022-08-27T06:46:17;19.7;82
70682;SHT31;58261;48.228;11.686;2022-08-27T06:49:37;19.7;82
70682;SHT31;58261;48.228;11.686;2022-08-27T06:52:56;19.8;82
70682;SHT31;58261;48.228;11.686;2022-08-27T06:56:16;19.8;82
70682;SHT31;58261;48.228;11.686;2022-08-27T06:59:36;19.8;82
70682;SHT31;58261;48.228;11.686;2022-08-27T07:02:56;19.8;82
70682;SHT31;58261;48.228;11.686;2022-08-27T07:06:16;19.8;82
70682;SHT31;58261;48.228;11.686;2022-08-27T07:09:36;19.8;82
70682;SHT31;58261;48.228;11.686;2022-08-27T07:12:56;19.8;82
70682;SHT31;58261;48.228;11.686;2022-08-27T07:16:17;19.7;82
70682;SHT31;58261;48.228;11.686;2022-08-27T07:19:36;19.7;82
70682;SHT31;58261;48.228;11.686;2022-08-27T07:22:56;19.7;82
70682;SHT31;58261;48.228;11.686;2022-08-27T07:26:16;19.8;82
70682;SHT31;58261;48.228;11.686;2022-08-27T07:29:36;19.8;82
70682;SHT31;58261;48.228;11.686;2022-08-27T07:32:56;19.8;82
70682;SHT31;58261;48.228;11.686;2022-08-27T07:36:16;19.8;82
70682;SHT31;58261;48.228;11.686;2022-08-27T07:39:36;19.8;82
70682;SHT31;58261;48.228;11.686;2022-08-27T07:42:56;19.8;82
70682;SHT31;58261;48.228;11.686;2022-08-27T07:46:16;19.8;82
70682;SHT31;58261;48.228;11.686;2022-08-27T07:49:36;19.8;82
70682;SHT31;58261;48.228;11.686;2022-08-27T07:52:56;19.8;82
70682;SHT31;58261;48.228;11.686;2022-08-27T07:56:16;19.8;82
70682;SHT31;58261;48.228;11.686;2022-08-27T07:59:36;19.8;82
70682;SHT31;58261;48.228;11.686;2022-08-27T08:02:56;19.8;82
70682;SHT31;58261;48.228;11.686;2022-08-27T08:06:16;19.8;82
70682;SHT31;58261;48.228;11.686;2022-08-27T08:09:36;19.8;82
70682;SHT31;58261;48.228;11.686;2022-08-27T08:12:56;19.8;82
70682;SHT31;58261;48.228;11.686;2022-08-27T08:16:16;19.8;82
70682;SHT31;58261;48.228;11.686;2022-08-27T08:19:36;19.9;81
70682;SHT31;58261;48.228;11.686;2022-08-27T08:22:56;19.9;81
70682;SHT31;58261;48.228;11.686;2022-08-27T08:26:16;19.9;81
70682;SHT31;58261;48.228;11.686;2022-08-27T08:29:36;19.9;81
70682;SHT31;58261;48.228;11.686;2022-08-27T08:32:56;20.0;79
70682;SHT31;58261;48.228;11.686;2022-08-27T08:36:16;20.0;79
70682;SHT31;58261;48.228;11.686;2022-08-27T08:39:36;20.0;79
70682;SHT31;58261;48.228;11.686;2022-08-27T08:42:56;20.1;78
70682;SHT31;58261;48.228;11.686;2022-08-27T08:46:17;20.1;78
70682;SHT31;58261;48.228;11.686;2022-08-27T08:49:39;20.1;78
70682;SHT31;58261;48.228;11.686;2022-08-27T08:52:57;20.2;78
70682;SHT31;58261;48.228;11.686;2022-08-27T08:56:17;20.2;78
70682;SHT31;58261;48.228;11.686;2022-08-27T08:59:37;20.2;78
70682;SHT31;58261;48.228;11.686;2022-08-27T09:02:56;20.3;77
70682;SHT31;58261;48.228;11.686;2022-08-27T09:06:17;20.3;77
70682;SHT31;58261;48.228;11.686;2022-08-27T09:09:37;20.3;77
70682;SHT31;58261;48.228;11.686;2022-08-27T09:12:57;20.3;77
70682;SHT31;58261;48.228;11.686;2022-08-27T09:16:16;20.4;77
70682;SHT31;58261;48.228;11.686;2022-08-27T09:19:36;20.4;77
70682;SHT31;58261;48.228;11.686;2022-08-27T09:22:59;20.4;77
70682;SHT31;58261;48.228;11.686;2022-08-27T09:26:20;20.4;77
70682;SHT31;58261;48.228;11.686;2022-08-27T09:29:44;20.4;77
70682;SHT31;58261;48.228;11.686;2022-08-27T09:32:58;20.4;77
70682;SHT31;58261;48.228;11.686;2022-08-27T09:36:16;20.6;77
70682;SHT31;58261;48.228;11.686;2022-08-27T09:39:42;20.6;77
70682;SHT31;58261;48.228;11.686;2022-08-27T09:42:57;20.6;77
70682;SHT31;58261;48.228;11.686;2022-08-27T09:46:18;20.6;77
70682;SHT31;58261;48.228;11.686;2022-08-27T09:49:36;20.6;75
70682;SHT31;58261;48.228;11.686;2022-08-27T09:52:57;20.6;75
70682;SHT31;58261;48.228;11.686;2022-08-27T09:56:20;20.6;75
70682;SHT31;58261;48.228;11.686;2022-08-27T09:59:37;20.8;76
70682;SHT31;58261;48.228;11.686;2022-08-27T10:02:58;20.8;76
70682;SHT31;58261;48.228;11.686;2022-08-27T10:09:37;20.9;75
70682;SHT31;58261;48.228;11.686;2022-08-27T10:12:57;20.9;75
70682;SHT31;58261;48.228;11.686;2022-08-27T10:16:22;20.9;75
70682;SHT31;58261;48.228;11.686;2022-08-27T10:19:41;21.0;76
70682;SHT31;58261;48.228;11.686;2022-08-27T10:23:00;21.0;76
70682;SHT31;58261;48.228;11.686;2022-08-27T10:26:18;21.0;76
70682;SHT31;58261;48.228;11.686;2022-08-27T10:29:39;21.0;76
70682;SHT31;58261;48.228;11.686;2022-08-27T10:32:59;20.9;75
70682;SHT31;58261;48.228;11.686;2022-08-27T10:36:19;20.9;75
70682;SHT31;58261;48.228;11.686;2022-08-27T10:42:59;21.1;73
70682;SHT31;58261;48.228;11.686;2022-08-27T10:49:39;21.1;73
70682;SHT31;58261;48.228;11.686;2022-08-27T10:52:57;21.0;74
70682;SHT31;58261;48.228;11.686;2022-08-27T10:56:18;21.0;74
70682;SHT31;58261;48.228;11.686;2022-08-27T10:59:37;21.0;74
70682;SHT31;58261;48.228;11.686;2022-08-27T11:02:57;21.1;72
70682;SHT31;58261;48.228;11.686;2022-08-27T11:06:21;21.1;72
70682;SHT31;58261;48.228;11.686;2022-08-27T11:09:38;21.1;72
70682;SHT31;58261;48.228;11.686;2022-08-27T11:12:58;21.1;72
70682;SHT31;58261;48.228;11.686;2022-08-27T11:16:17;21.1;74
70682;SHT31;58261;48.228;11.686;2022-08-27T11:19:40;21.1;74
70682;SHT31;58261;48.228;11.686;2022-08-27T11:22:58;21.1;74
70682;SHT31;58261;48.228;11.686;2022-08-27T11:26:16;21.2;75
70682;SHT31;58261;48.228;11.686;2022-08-27T11:29:39;21.2;75
70682;SHT31;58261;48.228;11.686;2022-08-27T11:33:00;21.2;75
70682;SHT31;58261;48.228;11.686;2022-08-27T11:36:22;21.2;74
70682;SHT31;58261;48.228;11.686;2022-08-27T11:39:41;21.2;74
70682;SHT31;58261;48.228;11.686;2022-08-27T11:42:57;21.2;74
70682;SHT31;58261;48.228;11.686;2022-08-27T11:46:20;21.3;71
70682;SHT31;58261;48.228;11.686;2022-08-27T11:49:40;21.3;71
70682;SHT31;58261;48.228;11.686;2022-08-27T11:52:57;21.3;71
70682;SHT31;58261;48.228;11.686;2022-08-27T11:56:19;21.3;71
70682;SHT31;58261;48.228;11.686;2022-08-27T11:59:36;21.5;71
70682;SHT31;58261;48.228;11.686;2022-08-27T12:02:57;21.5;71
70682;SHT31;58261;48.228;11.686;2022-08-27T12:06:18;21.5;71
70682;SHT31;58261;48.228;11.686;2022-08-27T12:13:00;21.6;69
70682;SHT31;58261;48.228;11.686;2022-08-27T12:16:19;21.6;69
70682;SHT31;58261;48.228;11.686;2022-08-27T12:19:40;21.9;68
70682;SHT31;58261;48.228;11.686;2022-08-27T12:23:01;21.9;68
70682;SHT31;58261;48.228;11.686;2022-08-27T12:26:25;21.9;68
70682;SHT31;58261;48.228;11.686;2022-08-27T12:29:38;22.0;68
70682;SHT31;58261;48.228;11.686;2022-08-27T12:32:57;22.0;68
70682;SHT31;58261;48.228;11.686;2022-08-27T12:36:18;22.0;68
70682;SHT31;58261;48.228;11.686;2022-08-27T12:39:36;22.0;68
70682;SHT31;58261;48.228;11.686;2022-08-27T12:46:18;22.1;68
70682;SHT31;58261;48.228;11.686;2022-08-27T12:49:38;22.1;68
70682;SHT31;58261;48.228;11.686;2022-08-27T12:53:00;22.3;66
70682;SHT31;58261;48.228;11.686;2022-08-27T12:56:22;22.3;66
70682;SHT31;58261;48.228;11.686;2022-08-27T12:59:40;22.3;66
70682;SHT31;58261;48.228;11.686;2022-08-27T13:03:04;22.4;67
70682;SHT31;58261;48.228;11.686;2022-08-27T13:06:18;22.4;67
70682;SHT31;58261;48.228;11.686;2022-08-27T13:09:37;22.4;67
70682;SHT31;58261;48.228;11.686;2022-08-27T13:13:02;22.4;67
70682;SHT31;58261;48.228;11.686;2022-08-27T13:16:17;22.5;65
70682;SHT31;58261;48.228;11.686;2022-08-27T13:19:42;22.5;65
70682;SHT31;58261;48.228;11.686;2022-08-27T13:22:57;22.5;65
70682;SHT31;58261;48.228;11.686;2022-08-27T13:26:19;22.5;66
70682;SHT31;58261;48.228;11.686;2022-08-27T13:29:37;22.5;66
70682;SHT31;58261;48.228;11.686;2022-08-27T13:32:57;22.5;66
70682;SHT31;58261;48.228;11.686;2022-08-27T13:39:37;22.7;65
70682;SHT31;58261;48.228;11.686;2022-08-27T13:43:01;22.7;65
70682;SHT31;58261;48.228;11.686;2022-08-27T13:46:17;22.9;65
70682;SHT31;58261;48.228;11.686;2022-08-27T13:49:37;22.9;65
70682;SHT31;58261;48.228;11.686;2022-08-27T13:53:01;22.9;65
70682;SHT31;58261;48.228;11.686;2022-08-27T13:59:37;23.0;63
70682;SHT31;58261;48.228;11.686;2022-08-27T14:02:57;23.0;63
70682;SHT31;58261;48.228;11.686;2022-08-27T14:09:40;23.0;64
70682;SHT31;58261;48.228;11.686;2022-08-27T14:12:57;23.0;64
70682;SHT31;58261;48.228;11.686;2022-08-27T14:16:21;23.0;64
70682;SHT31;58261;48.228;11.686;2022-08-27T14:19:37;23.0;64
70682;SHT31;58261;48.228;11.686;2022-08-27T14:22:57;23.0;64
70682;SHT31;58261;48.228;11.686;2022-08-27T14:26:17;23.0;64
70682;SHT31;58261;48.228;11.686;2022-08-27T14:29:37;23.0;63
70682;SHT31;58261;48.228;11.686;2022-08-27T14:32:57;23.0;63
70682;SHT31;58261;48.228;11.686;2022-08-27T14:36:17;23.0;63
70682;SHT31;58261;48.228;11.686;2022-08-27T14:39:37;23.0;63
70682;SHT31;58261;48.228;11.686;2022-08-27T14:42:57;23.1;62
70682;SHT31;58261;48.228;11.686;2022-08-27T14:46:23;23.1;62
70682;SHT31;58261;48.228;11.686;2022-08-27T14:49:38;23.1;62
70682;SHT31;58261;48.228;11.686;2022-08-27T14:52:57;23.1;61
70682;SHT31;58261;48.228;11.686;2022-08-27T14:56:17;23.1;61
70682;SHT31;58261;48.228;11.686;2022-08-27T14:59:37;23.1;61
70682;SHT31;58261;48.228;11.686;2022-08-27T15:02:57;23.1;61
70682;SHT31;58261;48.228;11.686;2022-08-27T15:06:17;23.1;61
70682;SHT31;58261;48.228;11.686;2022-08-27T15:09:37;23.1;61
70682;SHT31;58261;48.228;11.686;2022-08-27T15:12:57;23.1;61
70682;SHT31;58261;48.228;11.686;2022-08-27T15:19:37;23.2;62
70682;SHT31;58261;48.228;11.686;2022-08-27T15:22:57;23.2;62
70682;SHT31;58261;48.228;11.686;2022-08-27T15:26:17;23.4;61
70682;SHT31;58261;48.228;11.686;2022-08-27T15:29:37;23.4;61
70682;SHT31;58261;48.228;11.686;2022-08-27T15:32:57;23.4;61
70682;SHT31;58261;48.228;11.686;2022-08-27T15:36:17;23.3;64
70682;SHT31;58261;48.228;11.686;2022-08-27T15:39:37;23.3;64
70682;SHT31;58261;48.228;11.686;2022-08-27T15:42:58;23.3;64
70682;SHT31;58261;48.228;11.686;2022-08-27T15:46:17;23.3;64
70682;SHT31;58261;48.228;11.686;2022-08-27T15:49:37;23.3;64
70682;SHT31;58261;48.228;11.686;2022-08-27T15:52:58;23.3;64
70682;SHT31;58261;48.228;11.686;2022-08-27T15:56:17;23.3;64
70682;SHT31;58261;48.228;11.686;2022-08-27T15:59:37;23.2;63
70682;SHT31;58261;48.228;11.686;2022-08-27T16:02:57;23.2;63
70682;SHT31;58261;48.228;11.686;2022-08-27T16:06:17;23.2;63
70682;SHT31;58261;48.228;11.686;2022-08-27T16:09:37;23.2;62
70682;SHT31;58261;48.228;11.686;2022-08-27T16:12:57;23.2;62
70682;SHT31;58261;48.228;11.686;2022-08-27T16:16:17;23.2;62
70682;SHT31;58261;48.228;11.686;2022-08-27T16:19:37;23.2;63
70682;SHT31;58261;48.228;11.686;2022-08-27T16:22:57;23.2;63
70682;SHT31;58261;48.228;11.686;2022-08-27T16:28:09;21.7;73
70682;SHT31;58261;48.228;11.686;2022-08-27T16:31:46;21.7;73
70682;SHT31;58261;48.228;11.686;2022-08-27T16:35:05;23.1;65
70682;SHT31;58261;48.228;11.686;2022-08-27T16:38:25;23.1;65
70682;SHT31;58261;48.228;11.686;2022-08-27T16:41:45;23.0;64
70682;SHT31;58261;48.228;11.686;2022-08-27T16:45:06;23.0;64
70682;SHT31;58261;48.228;11.686;2022-08-27T16:48:26;23.0;64
70682;SHT31;58261;48.228;11.686;2022-08-27T16:51:45;22.9;64
70682;SHT31;58261;48.228;11.686;2022-08-27T16:55:06;22.9;64
70682;SHT31;58261;48.228;11.686;2022-08-27T16:58:26;22.9;64
70682;SHT31;58261;48.228;11.686;2022-08-27T17:01:46;22.9;64
70682;SHT31;58261;48.228;11.686;2022-08-27T17:05:06;22.8;62
70682;SHT31;58261;48.228;11.686;2022-08-27T17:08:25;22.8;62
70682;SHT31;58261;48.228;11.686;2022-08-27T17:11:47;22.8;62
70682;SHT31;58261;48.228;11.686;2022-08-27T17:15:06;22.6;62
70682;SHT31;58261;48.228;11.686;2022-08-27T17:18:25;22.6;62
70682;SHT31;58261;48.228;11.686;2022-08-27T17:21:45;22.6;62
70682;SHT31;58261;48.228;11.686;2022-08-27T17:25:06;22.5;62
70682;SHT31;58261;48.228;11.686;2022-08-27T17:28:25;22.5;62
70682;SHT31;58261;48.228;11.686;2022-08-27T17:31:45;22.5;62
70682;SHT31;58261;48.228;11.686;2022-08-27T17:35:06;22.4;63
70682;SHT31;58261;48.228;11.686;2022-08-27T17:38:26;22.4;63
70682;SHT31;58261;48.228;11.686;2022-08-27T17:41:46;22.4;63
70682;SHT31;58261;48.228;11.686;2022-08-27T17:45:06;22.4;63
70682;SHT31;58261;48.228;11.686;2022-08-27T17:48:25;22.3;64
70682;SHT31;58261;48.228;11.686;2022-08-27T17:51:46;22.3;64
70682;SHT31;58261;48.228;11.686;2022-08-27T17:55:06;22.3;64
70682;SHT31;58261;48.228;11.686;2022-08-27T17:58:25;22.2;66
70682;SHT31;58261;48.228;11.686;2022-08-27T18:01:46;22.2;66
70682;SHT31;58261;48.228;11.686;2022-08-27T18:05:06;22.2;66
70682;SHT31;58261;48.228;11.686;2022-08-27T18:08:26;22.0;68
70682;SHT31;58261;48.228;11.686;2022-08-27T18:11:45;22.0;68
70682;SHT31;58261;48.228;11.686;2022-08-27T18:15:07;22.0;68
70682;SHT31;58261;48.228;11.686;2022-08-27T18:18:26;22.0;68
70682;SHT31;58261;48.228;11.686;2022-08-27T18:21:46;22.0;68
70682;SHT31;58261;48.228;11.686;2022-08-27T18:25:06;22.0;68
70682;SHT31;58261;48.228;11.686;2022-08-27T18:28:26;22.0;68
70682;SHT31;58261;48.228;11.686;2022-08-27T18:31:46;21.8;69
70682;SHT31;58261;48.228;11.686;2022-08-27T18:35:08;21.8;69
70682;SHT31;58261;48.228;11.686;2022-08-27T18:38:26;21.8;69
70682;SHT31;58261;48.228;11.686;2022-08-27T18:41:46;21.7;70
70682;SHT31;58261;48.228;11.686;2022-08-27T18:45:07;21.7;70
70682;SHT31;58261;48.228;11.686;2022-08-27T18:48:26;21.7;70
70682;SHT31;58261;48.228;11.686;2022-08-27T18:51:46;21.5;72
70682;SHT31;58261;48.228;11.686;2022-08-27T18:55:07;21.5;72
70682;SHT31;58261;48.228;11.686;2022-08-27T18:58:26;21.5;72
70682;SHT31;58261;48.228;11.686;2022-08-27T19:01:46;21.5;73
70682;SHT31;58261;48.228;11.686;2022-08-27T19:05:06;21.5;73
70682;SHT31;58261;48.228;11.686;2022-08-27T19:08:26;21.5;73
70682;SHT31;58261;48.228;11.686;2022-08-27T19:11:46;21.5;73
70682;SHT31;58261;48.228;11.686;2022-08-27T19:15:06;21.5;73
70682;SHT31;58261;48.228;11.686;2022-08-27T19:18:26;21.5;73
70682;SHT31;58261;48.228;11.686;2022-08-27T19:21:46;21.5;73
70682;SHT31;58261;48.228;11.686;2022-08-27T19:25:06;21.4;74
70682;SHT31;58261;48.228;11.686;2022-08-27T19:28:27;21.4;74
70682;SHT31;58261;48.228;11.686;2022-08-27T19:31:46;21.4;74
70682;SHT31;58261;48.228;11.686;2022-08-27T19:35:06;21.4;74
70682;SHT31;58261;48.228;11.686;2022-08-27T19:38:26;21.4;74
70682;SHT31;58261;48.228;11.686;2022-08-27T19:41:46;21.4;74
70682;SHT31;58261;48.228;11.686;2022-08-27T19:45:06;21.4;74
70682;SHT31;58261;48.228;11.686;2022-08-27T19:48:26;21.2;75
70682;SHT31;58261;48.228;11.686;2022-08-27T19:51:46;21.2;75
70682;SHT31;58261;48.228;11.686;2022-08-27T19:55:06;21.2;75
70682;SHT31;58261;48.228;11.686;2022-08-27T19:58:26;21.1;75
70682;SHT31;58261;48.228;11.686;2022-08-27T20:01:46;21.1;75
70682;SHT31;58261;48.228;11.686;2022-08-27T20:05:06;21.1;75
70682;SHT31;58261;48.228;11.686;2022-08-27T20:08:26;21.0;75
70682;SHT31;58261;48.228;11.686;2022-08-27T20:11:46;21.0;75
70682;SHT31;58261;48.228;11.686;2022-08-27T20:15:06;21.0;75
70682;SHT31;58261;48.228;11.686;2022-08-27T20:18:26;20.9;76
70682;SHT31;58261;48.228;11.686;2022-08-27T20:21:46;20.9;76
70682;SHT31;58261;48.228;11.686;2022-08-27T20:25:06;20.9;76
70682;SHT31;58261;48.228;11.686;2022-08-27T20:28:26;20.9;76
70682;SHT31;58261;48.228;11.686;2022-08-27T20:31:46;20.8;77
70682;SHT31;58261;48.228;11.686;2022-08-27T20:35:06;20.8;77
70682;SHT31;58261;48.228;11.686;2022-08-27T20:38:26;20.8;77
70682;SHT31;58261;48.228;11.686;2022-08-27T20:41:46;20.9;76
70682;SHT31;58261;48.228;11.686;2022-08-27T20:45:06;20.9;76
70682;SHT31;58261;48.228;11.686;2022-08-27T20:48:26;20.9;76
70682;SHT31;58261;48.228;11.686;2022-08-27T20:51:46;20.7;77
70682;SHT31;58261;48.228;11.686;2022-08-27T20:55:06;20.7;77
70682;SHT31;58261;48.228;11.686;2022-08-27T20:58:26;20.7;77
70682;SHT31;58261;48.228;11.686;2022-08-27T21:01:46;20.9;76
70682;SHT31;58261;48.228;11.686;2022-08-27T21:05:07;20.9;76
70682;SHT31;58261;48.228;11.686;2022-08-27T21:08:26;20.9;76
70682;SHT31;58261;48.228;11.686;2022-08-27T21:11:46;20.9;76
70682;SHT31;58261;48.228;11.686;2022-08-27T21:15:06;20.9;76
70682;SHT31;58261;48.228;11.686;2022-08-27T21:18:26;20.9;76
70682;SHT31;58261;48.228;11.686;2022-08-27T21:21:46;20.9;76
70682;SHT31;58261;48.228;11.686;2022-08-27T21:25:06;21.1;76
70682;SHT31;58261;48.228;11.686;2022-08-27T21:28:26;21.1;76
70682;SHT31;58261;48.228;11.686;2022-08-27T21:31:46;21.1;76
70682;SHT31;58261;48.228;11.686;2022-08-27T21:35:06;21.0;77
70682;SHT31;58261;48.228;11.686;2022-08-27T21:38:26;21.0;77
70682;SHT31;58261;48.228;11.686;2022-08-27T21:41:46;21.0;77
70682;SHT31;58261;48.228;11.686;2022-08-27T21:45:06;20.8;78
70682;SHT31;58261;48.228;11.686;2022-08-27T21:48:26;20.8;78
70682;SHT31;58261;48.228;11.686;2022-08-27T21:51:46;20.8;78
70682;SHT31;58261;48.228;11.686;2022-08-27T21:55:06;20.8;78
70682;SHT31;58261;48.228;11.686;2022-08-27T21:58:26;20.7;79
70682;SHT31;58261;48.228;11.686;2022-08-27T21:59:37;20.7;79
70682;SHT31;58261;48.228;11.686;2022-08-27T22:02:54;20.7;79
70682;SHT31;58261;48.228;11.686;2022-08-27T22:06:15;20.7;79
70682;SHT31;58261;48.228;11.686;2022-08-27T22:09:34;20.6;79
70682;SHT31;58261;48.228;11.686;2022-08-27T22:12:54;20.6;79
70682;SHT31;58261;48.228;11.686;2022-08-27T22:16:14;20.6;79
70682;SHT31;58261;48.228;11.686;2022-08-27T22:19:34;20.5;79
70682;SHT31;58261;48.228;11.686;2022-08-27T22:22:55;20.5;79
70682;SHT31;58261;48.228;11.686;2022-08-27T22:26:14;20.5;79
70682;SHT31;58261;48.228;11.686;2022-08-27T22:29:34;20.4;79
70682;SHT31;58261;48.228;11.686;2022-08-27T22:32:54;20.4;79
70682;SHT31;58261;48.228;11.686;2022-08-27T22:36:14;20.4;79